sensor_id;sensor_type;location;lat;lon;timestamp;temperature;humidity
9658;DHT22;4867;48.112;11.622;2022-12-13T00:01:45;-7.40;99.90
9658;DHT22;4867;48.112;11.622;2022-12-13T00:04:13;-7.40;99.90
9658;DHT22;4867;48.112;11.622;2022-12-13T00:06:41;-7.40;99.90
9658;DHT22;4867;48.112;11.622;2022-12-13T00:09:11;-7.40;99.90
9658;DHT22;4867;48.112;11.622;2022-12-13T00:11:40;-7.40;99.90
9658;DHT22;4867;48.112;11.622;2022-12-13T00:14:07;-7.40;99.90
9658;DHT22;4867;48.112;11.622;2022-12-13T00:16:34;-7.40;99.90
9658;DHT22;4867;48.112;11.622;2022-12-13T00:19:02;-7.40;99.90
9658;DHT22;4867;48.112;11.622;2022-12-13T00:21:31;-7.40;99.90
9658;DHT22;4867;48.112;11.622;2022-12-13T00:23:59;-7.40;99.90
9658;DHT22;4867;48.112;11.622;2022-12-13T00:26:31;-7.40;99.90
9658;DHT22;4867;48.112;11.622;2022-12-13T00:29:00;-7.50;99.90
9658;DHT22;4867;48.112;11.622;2022-12-13T00:31:28;-7.50;99.90
9658;DHT22;4867;48.112;11.622;2022-12-13T00:34:18;-7.60;99.90
9658;DHT22;4867;48.112;11.622;2022-12-13T00:36:46;-7.60;99.90
9658;DHT22;4867;48.112;11.622;2022-12-13T00:39:16;-7.70;99.90
9658;DHT22;4867;48.112;11.622;2022-12-13T00:41:45;-7.70;99.90
9658;DHT22;4867;48.112;11.622;2022-12-13T00:44:15;-7.80;99.90
9658;DHT22;4867;48.112;11.622;2022-12-13T00:46:43;-7.80;99.90
9658;DHT22;4867;48.112;11.622;2022-12-13T00:49:11;-7.80;99.90
9658;DHT22;4867;48.112;11.622;2022-12-13T00:51:39;-7.70;99.90
9658;DHT22;4867;48.112;11.622;2022-12-13T00:54:08;-7.80;99.90
9658;DHT22;4867;48.112;11.622;2022-12-13T00:56:36;-7.80;99.90
9658;DHT22;4867;48.112;11.622;2022-12-13T00:59:04;-7.90;99.90
9658;DHT22;4867;48.112;11.622;2022-12-13T01:01:33;-7.90;99.90
9658;DHT22;4867;48.112;11.622;2022-12-13T01:04:04;-7.90;99.90
9658;DHT22;4867;48.112;11.622;2022-12-13T01:06:43;-8.00;99.90
9658;DHT22;4867;48.112;11.622;2022-12-13T01:09:18;-8.00;99.90
9658;DHT22;4867;48.112;11.622;2022-12-13T01:11:46;-7.90;99.90
9658;DHT22;4867;48.112;11.622;2022-12-13T01:14:17;-7.90;99.90
9658;DHT22;4867;48.112;11.622;2022-12-13T01:16:45;-8.00;99.90
9658;DHT22;4867;48.112;11.622;2022-12-13T01:19:13;-8.00;99.90
9658;DHT22;4867;48.112;11.622;2022-12-13T01:21:40;-8.00;99.90
9658;DHT22;4867;48.112;11.622;2022-12-13T01:24:08;-8.10;99.90
9658;DHT22;4867;48.112;11.622;2022-12-13T01:26:37;-8.10;99.90
9658;DHT22;4867;48.112;11.622;2022-12-13T01:29:04;-7.00;99.90
9658;DHT22;4867;48.112;11.622;2022-12-13T01:31:32;-8.20;99.90
9658;DHT22;4867;48.112;11.622;2022-12-13T01:33:59;-8.30;99.90
9658;DHT22;4867;48.112;11.622;2022-12-13T01:36:41;-8.20;99.90
9658;DHT22;4867;48.112;11.622;2022-12-13T01:39:10;-8.10;99.90
9658;DHT22;4867;48.112;11.622;2022-12-13T01:41:52;-7.80;99.90
9658;DHT22;4867;48.112;11.622;2022-12-13T01:47:23;-8.20;99.90
9658;DHT22;4867;48.112;11.622;2022-12-13T01:49:52;-8.20;99.90
9658;DHT22;4867;48.112;11.622;2022-12-13T01:52:28;-8.20;99.90
9658;DHT22;4867;48.112;11.622;2022-12-13T01:54:57;-8.10;99.90
9658;DHT22;4867;48.112;11.622;2022-12-13T01:57:43;-8.20;99.90
9658;DHT22;4867;48.112;11.622;2022-12-13T02:00:13;-8.20;99.90
9658;DHT22;4867;48.112;11.622;2022-12-13T02:02:44;-8.20;99.90
9658;DHT22;4867;48.112;11.622;2022-12-13T02:08:07;-8.20;99.90
9658;DHT22;4867;48.112;11.622;2022-12-13T02:10:37;-8.20;99.90
9658;DHT22;4867;48.112;11.622;2022-12-13T02:13:04;-8.20;99.90
9658;DHT22;4867;48.112;11.622;2022-12-13T02:16:07;-8.20;99.90
9658;DHT22;4867;48.112;11.622;2022-12-13T02:18:47;-8.20;99.90
9658;DHT22;4867;48.112;11.622;2022-12-13T02:36:05;-8.00;99.90
9658;DHT22;4867;48.112;11.622;2022-12-13T02:38:56;-8.00;99.90
9658;DHT22;4867;48.112;11.622;2022-12-13T02:44:15;-7.90;99.90
9658;DHT22;4867;48.112;11.622;2022-12-13T02:47:05;-7.90;99.90
9658;DHT22;4867;48.112;11.622;2022-12-13T02:49:42;-7.90;99.90
9658;DHT22;4867;48.112;11.622;2022-12-13T02:52:17;-7.70;99.90
9658;DHT22;4867;48.112;11.622;2022-12-13T02:54:48;-7.90;99.90
9658;DHT22;4867;48.112;11.622;2022-12-13T02:59:55;-7.90;99.90
9658;DHT22;4867;48.112;11.622;2022-12-13T03:05:45;-7.90;99.90
9658;DHT22;4867;48.112;11.622;2022-12-13T03:08:44;-7.90;99.90
9658;DHT22;4867;48.112;11.622;2022-12-13T03:11:16;-7.90;99.90
9658;DHT22;4867;48.112;11.622;2022-12-13T03:13:53;-7.90;99.90
9658;DHT22;4867;48.112;11.622;2022-12-13T03:16:28;-8.00;99.90
9658;DHT22;4867;48.112;11.622;2022-12-13T03:19:00;-8.00;99.90
9658;DHT22;4867;48.112;11.622;2022-12-13T03:21:29;-7.90;99.90
9658;DHT22;4867;48.112;11.622;2022-12-13T03:23:56;-8.00;99.90
9658;DHT22;4867;48.112;11.622;2022-12-13T03:26:25;-8.00;99.90
9658;DHT22;4867;48.112;11.622;2022-12-13T03:28:53;-8.00;99.90
9658;DHT22;4867;48.112;11.622;2022-12-13T03:31:21;-8.00;99.90
9658;DHT22;4867;48.112;11.622;2022-12-13T03:33:48;-8.00;99.90
9658;DHT22;4867;48.112;11.622;2022-12-13T03:36:16;-8.00;99.90
9658;DHT22;4867;48.112;11.622;2022-12-13T03:38:49;-8.00;99.90
9658;DHT22;4867;48.112;11.622;2022-12-13T03:41:22;-8.00;99.90
9658;DHT22;4867;48.112;11.622;2022-12-13T03:43:52;-8.00;99.90
9658;DHT22;4867;48.112;11.622;2022-12-13T03:46:19;-8.10;99.90
9658;DHT22;4867;48.112;11.622;2022-12-13T03:48:47;-8.10;99.90
9658;DHT22;4867;48.112;11.622;2022-12-13T03:51:14;-8.10;99.90
9658;DHT22;4867;48.112;11.622;2022-12-13T03:53:41;-8.20;99.90
9658;DHT22;4867;48.112;11.622;2022-12-13T03:56:10;-8.20;99.90
9658;DHT22;4867;48.112;11.622;2022-12-13T03:58:37;-8.30;99.90
9658;DHT22;4867;48.112;11.622;2022-12-13T04:01:11;-8.30;99.90
9658;DHT22;4867;48.112;11.622;2022-12-13T04:03:41;-8.30;99.90
9658;DHT22;4867;48.112;11.622;2022-12-13T04:06:09;-8.40;99.90
9658;DHT22;4867;48.112;11.622;2022-12-13T04:08:38;-8.40;99.90
9658;DHT22;4867;48.112;11.622;2022-12-13T04:11:06;-8.40;99.90
9658;DHT22;4867;48.112;11.622;2022-12-13T04:13:53;-8.40;99.90
9658;DHT22;4867;48.112;11.622;2022-12-13T04:16:21;-8.50;99.90
9658;DHT22;4867;48.112;11.622;2022-12-13T04:18:48;-8.50;99.90
9658;DHT22;4867;48.112;11.622;2022-12-13T04:21:16;-8.60;99.90
9658;DHT22;4867;48.112;11.622;2022-12-13T04:23:43;-8.60;99.90
9658;DHT22;4867;48.112;11.622;2022-12-13T04:26:10;-8.60;99.90
9658;DHT22;4867;48.112;11.622;2022-12-13T04:28:37;-8.60;99.90
9658;DHT22;4867;48.112;11.622;2022-12-13T04:31:05;-8.70;99.90
9658;DHT22;4867;48.112;11.622;2022-12-13T04:33:32;-8.70;99.90
9658;DHT22;4867;48.112;11.622;2022-12-13T04:36:00;-8.70;99.90
9658;DHT22;4867;48.112;11.622;2022-12-13T04:38:31;-8.70;99.90
9658;DHT22;4867;48.112;11.622;2022-12-13T04:41:06;-8.70;99.90
9658;DHT22;4867;48.112;11.622;2022-12-13T04:43:33;-8.70;99.90
9658;DHT22;4867;48.112;11.622;2022-12-13T04:46:01;-8.70;99.90
9658;DHT22;4867;48.112;11.622;2022-12-13T04:48:28;-8.70;99.90
9658;DHT22;4867;48.112;11.622;2022-12-13T04:50:58;-8.70;99.90
9658;DHT22;4867;48.112;11.622;2022-12-13T04:53:28;-8.70;99.90
9658;DHT22;4867;48.112;11.622;2022-12-13T04:55:55;-8.60;99.90
9658;DHT22;4867;48.112;11.622;2022-12-13T04:58:23;-8.60;99.90
9658;DHT22;4867;48.112;11.622;2022-12-13T05:00:50;-8.60;99.90
9658;DHT22;4867;48.112;11.622;2022-12-13T05:03:18;-8.60;99.90
9658;DHT22;4867;48.112;11.622;2022-12-13T05:05:47;-8.50;99.90
9658;DHT22;4867;48.112;11.622;2022-12-13T05:08:18;-8.60;99.90
9658;DHT22;4867;48.112;11.622;2022-12-13T05:10:45;-8.40;99.90
9658;DHT22;4867;48.112;11.622;2022-12-13T05:13:13;-8.60;99.90
9658;DHT22;4867;48.112;11.622;2022-12-13T05:15:40;-8.60;99.90
9658;DHT22;4867;48.112;11.622;2022-12-13T05:18:09;-8.70;99.90
9658;DHT22;4867;48.112;11.622;2022-12-13T05:20:38;-8.70;99.90
9658;DHT22;4867;48.112;11.622;2022-12-13T05:23:05;-8.70;99.90
9658;DHT22;4867;48.112;11.622;2022-12-13T05:25:33;-8.80;99.90
9658;DHT22;4867;48.112;11.622;2022-12-13T05:28:04;-8.80;99.90
9658;DHT22;4867;48.112;11.622;2022-12-13T05:30:52;-8.70;99.90
9658;DHT22;4867;48.112;11.622;2022-12-13T05:33:21;-8.70;99.90
9658;DHT22;4867;48.112;11.622;2022-12-13T05:35:49;-8.00;99.90
9658;DHT22;4867;48.112;11.622;2022-12-13T05:38:22;-8.70;99.90
9658;DHT22;4867;48.112;11.622;2022-12-13T05:40:49;-8.70;99.90
9658;DHT22;4867;48.112;11.622;2022-12-13T05:43:16;-8.80;99.90
9658;DHT22;4867;48.112;11.622;2022-12-13T05:45:49;-8.80;99.90
9658;DHT22;4867;48.112;11.622;2022-12-13T05:48:17;-8.80;99.90
9658;DHT22;4867;48.112;11.622;2022-12-13T05:50:50;-8.90;99.90
9658;DHT22;4867;48.112;11.622;2022-12-13T05:53:41;-8.80;99.90
9658;DHT22;4867;48.112;11.622;2022-12-13T05:56:10;-8.80;99.90
9658;DHT22;4867;48.112;11.622;2022-12-13T05:58:38;-8.80;99.90
9658;DHT22;4867;48.112;11.622;2022-12-13T06:01:10;-8.80;99.90
9658;DHT22;4867;48.112;11.622;2022-12-13T06:03:38;-8.80;99.90
9658;DHT22;4867;48.112;11.622;2022-12-13T06:06:07;-8.80;99.90
9658;DHT22;4867;48.112;11.622;2022-12-13T06:08:35;-8.80;99.90
9658;DHT22;4867;48.112;11.622;2022-12-13T06:11:04;-8.80;99.90
9658;DHT22;4867;48.112;11.622;2022-12-13T06:13:41;-8.80;99.90
9658;DHT22;4867;48.112;11.622;2022-12-13T06:16:12;-8.80;99.90
9658;DHT22;4867;48.112;11.622;2022-12-13T06:18:51;-8.80;99.90
9658;DHT22;4867;48.112;11.622;2022-12-13T06:21:31;-8.80;99.90
9658;DHT22;4867;48.112;11.622;2022-12-13T06:24:09;-8.90;99.90
9658;DHT22;4867;48.112;11.622;2022-12-13T06:26:37;-8.90;99.90
9658;DHT22;4867;48.112;11.622;2022-12-13T06:29:04;-8.90;99.90
9658;DHT22;4867;48.112;11.622;2022-12-13T06:31:31;-8.90;99.90
9658;DHT22;4867;48.112;11.622;2022-12-13T06:34:03;-8.90;99.90
9658;DHT22;4867;48.112;11.622;2022-12-13T06:36:41;-8.80;99.90
9658;DHT22;4867;48.112;11.622;2022-12-13T06:39:09;-8.80;99.90
9658;DHT22;4867;48.112;11.622;2022-12-13T06:41:36;-8.80;99.90
9658;DHT22;4867;48.112;11.622;2022-12-13T06:44:04;-8.80;99.90
9658;DHT22;4867;48.112;11.622;2022-12-13T06:46:31;-8.80;99.90
9658;DHT22;4867;48.112;11.622;2022-12-13T06:48:59;-8.80;99.90
9658;DHT22;4867;48.112;11.622;2022-12-13T06:51:32;-8.80;99.90
9658;DHT22;4867;48.112;11.622;2022-12-13T06:54:00;-8.80;99.90
9658;DHT22;4867;48.112;11.622;2022-12-13T06:56:31;-8.90;99.90
9658;DHT22;4867;48.112;11.622;2022-12-13T06:58:58;-8.80;99.90
9658;DHT22;4867;48.112;11.622;2022-12-13T07:01:29;-8.80;99.90
9658;DHT22;4867;48.112;11.622;2022-12-13T07:04:08;-8.90;99.90
9658;DHT22;4867;48.112;11.622;2022-12-13T07:06:58;-8.90;99.90
9658;DHT22;4867;48.112;11.622;2022-12-13T07:09:31;-8.80;99.90
9658;DHT22;4867;48.112;11.622;2022-12-13T07:11:59;-8.80;99.90
9658;DHT22;4867;48.112;11.622;2022-12-13T07:14:27;-8.80;99.90
9658;DHT22;4867;48.112;11.622;2022-12-13T07:16:54;-8.80;99.90
9658;DHT22;4867;48.112;11.622;2022-12-13T07:19:31;-8.80;99.90
9658;DHT22;4867;48.112;11.622;2022-12-13T07:22:03;-8.70;99.90
9658;DHT22;4867;48.112;11.622;2022-12-13T07:24:33;-8.70;99.90
9658;DHT22;4867;48.112;11.622;2022-12-13T07:27:02;-8.70;99.90
9658;DHT22;4867;48.112;11.622;2022-12-13T07:29:29;-8.70;99.90
9658;DHT22;4867;48.112;11.622;2022-12-13T07:31:57;-8.70;99.90
9658;DHT22;4867;48.112;11.622;2022-12-13T07:34:28;-8.70;99.90
9658;DHT22;4867;48.112;11.622;2022-12-13T07:36:56;-8.70;99.90
9658;DHT22;4867;48.112;11.622;2022-12-13T07:39:24;-8.60;99.90
9658;DHT22;4867;48.112;11.622;2022-12-13T07:41:54;-8.60;99.90
9658;DHT22;4867;48.112;11.622;2022-12-13T07:44:23;-8.60;99.90
9658;DHT22;4867;48.112;11.622;2022-12-13T07:46:50;-8.50;99.90
9658;DHT22;4867;48.112;11.622;2022-12-13T07:49:18;-8.50;99.90
9658;DHT22;4867;48.112;11.622;2022-12-13T07:51:46;-8.40;99.90
9658;DHT22;4867;48.112;11.622;2022-12-13T07:54:14;-8.40;99.90
9658;DHT22;4867;48.112;11.622;2022-12-13T07:56:41;-8.40;99.90
9658;DHT22;4867;48.112;11.622;2022-12-13T07:59:09;-8.30;99.90
9658;DHT22;4867;48.112;11.622;2022-12-13T08:01:37;-8.20;99.90
9658;DHT22;4867;48.112;11.622;2022-12-13T08:04:04;-8.20;99.90
9658;DHT22;4867;48.112;11.622;2022-12-13T08:06:36;-8.10;99.90
9658;DHT22;4867;48.112;11.622;2022-12-13T08:09:05;-8.10;99.90
9658;DHT22;4867;48.112;11.622;2022-12-13T08:11:32;-8.00;99.90
9658;DHT22;4867;48.112;11.622;2022-12-13T08:13:59;-8.00;99.90
9658;DHT22;4867;48.112;11.622;2022-12-13T08:16:28;-7.90;99.90
9658;DHT22;4867;48.112;11.622;2022-12-13T08:18:57;-7.90;99.90
9658;DHT22;4867;48.112;11.622;2022-12-13T08:21:38;-7.80;99.90
9658;DHT22;4867;48.112;11.622;2022-12-13T08:24:25;-7.70;99.90
9658;DHT22;4867;48.112;11.622;2022-12-13T08:26:54;-7.70;99.90
9658;DHT22;4867;48.112;11.622;2022-12-13T08:29:21;-7.50;99.90
9658;DHT22;4867;48.112;11.622;2022-12-13T08:32:09;-7.60;99.90
9658;DHT22;4867;48.112;11.622;2022-12-13T08:34:37;-7.50;99.90
9658;DHT22;4867;48.112;11.622;2022-12-13T08:37:05;-7.50;99.90
9658;DHT22;4867;48.112;11.622;2022-12-13T08:39:34;-7.40;99.90
9658;DHT22;4867;48.112;11.622;2022-12-13T08:42:07;-7.40;99.90
9658;DHT22;4867;48.112;11.622;2022-12-13T08:44:45;-7.40;99.90
9658;DHT22;4867;48.112;11.622;2022-12-13T08:47:12;-7.30;99.90
9658;DHT22;4867;48.112;11.622;2022-12-13T08:49:57;-7.30;99.90
9658;DHT22;4867;48.112;11.622;2022-12-13T08:52:33;-7.20;99.90
9658;DHT22;4867;48.112;11.622;2022-12-13T08:55:08;-7.20;99.90
9658;DHT22;4867;48.112;11.622;2022-12-13T08:57:37;-7.00;99.90
9658;DHT22;4867;48.112;11.622;2022-12-13T09:00:05;-6.90;99.90
9658;DHT22;4867;48.112;11.622;2022-12-13T09:02:33;-6.90;99.90
9658;DHT22;4867;48.112;11.622;2022-12-13T09:05:05;-6.90;99.90
9658;DHT22;4867;48.112;11.622;2022-12-13T09:07:34;-6.80;99.90
9658;DHT22;4867;48.112;11.622;2022-12-13T09:10:03;-6.70;99.90
9658;DHT22;4867;48.112;11.622;2022-12-13T09:12:53;-6.60;99.90
9658;DHT22;4867;48.112;11.622;2022-12-13T09:15:29;-6.50;99.90
9658;DHT22;4867;48.112;11.622;2022-12-13T09:18:01;-6.40;99.90
9658;DHT22;4867;48.112;11.622;2022-12-13T09:20:32;-6.40;99.90
9658;DHT22;4867;48.112;11.622;2022-12-13T09:23:08;-6.30;99.90
9658;DHT22;4867;48.112;11.622;2022-12-13T09:25:56;-6.20;99.90
9658;DHT22;4867;48.112;11.622;2022-12-13T09:28:35;-6.20;99.90
9658;DHT22;4867;48.112;11.622;2022-12-13T09:31:11;-6.20;99.90
9658;DHT22;4867;48.112;11.622;2022-12-13T09:33:39;-6.10;99.90
9658;DHT22;4867;48.112;11.622;2022-12-13T09:36:16;-6.00;99.90
9658;DHT22;4867;48.112;11.622;2022-12-13T09:38:44;-5.90;99.90
9658;DHT22;4867;48.112;11.622;2022-12-13T09:41:19;-5.90;99.90
9658;DHT22;4867;48.112;11.622;2022-12-13T09:44:10;-5.90;99.90
9658;DHT22;4867;48.112;11.622;2022-12-13T09:47:02;-5.90;99.90
9658;DHT22;4867;48.112;11.622;2022-12-13T09:49:43;-5.90;99.90
9658;DHT22;4867;48.112;11.622;2022-12-13T09:52:23;-5.90;99.90
9658;DHT22;4867;48.112;11.622;2022-12-13T09:54:53;-5.80;99.90
9658;DHT22;4867;48.112;11.622;2022-12-13T09:57:33;-5.80;99.90
9658;DHT22;4867;48.112;11.622;2022-12-13T10:00:05;-5.70;99.90
9658;DHT22;4867;48.112;11.622;2022-12-13T10:02:48;-5.80;99.90
9658;DHT22;4867;48.112;11.622;2022-12-13T10:05:40;-5.70;99.90
9658;DHT22;4867;48.112;11.622;2022-12-13T10:08:15;-5.70;99.90
9658;DHT22;4867;48.112;11.622;2022-12-13T10:10:43;-5.80;99.90
9658;DHT22;4867;48.112;11.622;2022-12-13T10:13:18;-5.60;99.90
9658;DHT22;4867;48.112;11.622;2022-12-13T10:16:01;-5.70;99.90
9658;DHT22;4867;48.112;11.622;2022-12-13T10:18:36;-5.60;99.90
9658;DHT22;4867;48.112;11.622;2022-12-13T10:23:59;-5.40;99.90
9658;DHT22;4867;48.112;11.622;2022-12-13T10:26:50;-5.30;99.90
9658;DHT22;4867;48.112;11.622;2022-12-13T10:29:17;-5.20;99.90
9658;DHT22;4867;48.112;11.622;2022-12-13T10:31:47;-5.20;99.90
9658;DHT22;4867;48.112;11.622;2022-12-13T10:34:29;-5.10;99.90
9658;DHT22;4867;48.112;11.622;2022-12-13T10:39:52;-5.00;99.90
9658;DHT22;4867;48.112;11.622;2022-12-13T10:42:20;-4.90;99.90
9658;DHT22;4867;48.112;11.622;2022-12-13T10:45:17;-4.90;99.90
9658;DHT22;4867;48.112;11.622;2022-12-13T10:47:50;-4.90;99.90
9658;DHT22;4867;48.112;11.622;2022-12-13T10:50:26;-4.90;99.90
9658;DHT22;4867;48.112;11.622;2022-12-13T10:52:55;-4.80;99.90
9658;DHT22;4867;48.112;11.622;2022-12-13T10:55:34;-4.70;99.90
9658;DHT22;4867;48.112;11.622;2022-12-13T10:58:07;-4.60;99.90
9658;DHT22;4867;48.112;11.622;2022-12-13T11:00:45;-4.60;99.90
9658;DHT22;4867;48.112;11.622;2022-12-13T11:03:29;-4.60;99.90
9658;DHT22;4867;48.112;11.622;2022-12-13T11:06:13;-4.50;99.90
9658;DHT22;4867;48.112;11.622;2022-12-13T11:08:40;-4.40;99.90
9658;DHT22;4867;48.112;11.622;2022-12-13T11:11:09;-4.40;99.90
9658;DHT22;4867;48.112;11.622;2022-12-13T11:13:43;-4.30;99.90
9658;DHT22;4867;48.112;11.622;2022-12-13T11:16:25;-4.20;99.90
9658;DHT22;4867;48.112;11.622;2022-12-13T11:18:55;-4.10;99.90
9658;DHT22;4867;48.112;11.622;2022-12-13T11:21:26;-4.10;99.90
9658;DHT22;4867;48.112;11.622;2022-12-13T11:23:57;-4.10;99.90
9658;DHT22;4867;48.112;11.622;2022-12-13T11:26:31;-4.10;99.90
9658;DHT22;4867;48.112;11.622;2022-12-13T11:31:54;-4.00;99.90
9658;DHT22;4867;48.112;11.622;2022-12-13T11:34:41;-4.00;99.90
9658;DHT22;4867;48.112;11.622;2022-12-13T11:37:29;-4.00;99.90
9658;DHT22;4867;48.112;11.622;2022-12-13T11:40:12;-3.90;99.90
9658;DHT22;4867;48.112;11.622;2022-12-13T11:45:21;-3.80;99.90
9658;DHT22;4867;48.112;11.622;2022-12-13T11:47:59;-3.70;99.90
9658;DHT22;4867;48.112;11.622;2022-12-13T11:50:44;-3.70;99.90
9658;DHT22;4867;48.112;11.622;2022-12-13T11:56:03;-3.60;99.90
9658;DHT22;4867;48.112;11.622;2022-12-13T12:02:18;-3.50;99.90
9658;DHT22;4867;48.112;11.622;2022-12-13T12:04:51;-3.50;99.90
9658;DHT22;4867;48.112;11.622;2022-12-13T12:07:46;-3.50;99.90
9658;DHT22;4867;48.112;11.622;2022-12-13T12:10:37;-3.50;99.90
9658;DHT22;4867;48.112;11.622;2022-12-13T12:13:28;-3.60;99.90
9658;DHT22;4867;48.112;11.622;2022-12-13T12:16:07;-3.70;99.90
9658;DHT22;4867;48.112;11.622;2022-12-13T12:18:36;-3.80;99.90
9658;DHT22;4867;48.112;11.622;2022-12-13T12:21:48;-3.80;99.90
9658;DHT22;4867;48.112;11.622;2022-12-13T12:32:33;-3.60;99.90
9658;DHT22;4867;48.112;11.622;2022-12-13T12:38:38;-3.70;99.90
9658;DHT22;4867;48.112;11.622;2022-12-13T12:47:04;-3.70;99.90
9658;DHT22;4867;48.112;11.622;2022-12-13T12:50:31;-3.80;99.90
9658;DHT22;4867;48.112;11.622;2022-12-13T12:53:10;-3.80;99.90
9658;DHT22;4867;48.112;11.622;2022-12-13T12:58:37;-3.90;99.90
9658;DHT22;4867;48.112;11.622;2022-12-13T13:04:11;-3.90;99.90
9658;DHT22;4867;48.112;11.622;2022-12-13T13:06:59;-3.90;99.90
9658;DHT22;4867;48.112;11.622;2022-12-13T13:09:30;-3.90;99.90
9658;DHT22;4867;48.112;11.622;2022-12-13T13:12:02;-3.90;99.90
9658;DHT22;4867;48.112;11.622;2022-12-13T13:14:49;-3.80;99.90
9658;DHT22;4867;48.112;11.622;2022-12-13T13:20:21;-3.80;99.90
9658;DHT22;4867;48.112;11.622;2022-12-13T13:22:52;-3.80;99.90
9658;DHT22;4867;48.112;11.622;2022-12-13T13:25:40;-3.70;99.90
9658;DHT22;4867;48.112;11.622;2022-12-13T13:28:29;-3.70;99.90
9658;DHT22;4867;48.112;11.622;2022-12-13T13:31:03;-3.70;99.90
9658;DHT22;4867;48.112;11.622;2022-12-13T13:33:46;-3.70;99.90
9658;DHT22;4867;48.112;11.622;2022-12-13T13:39:18;-3.80;99.90
9658;DHT22;4867;48.112;11.622;2022-12-13T13:58:40;-3.50;99.90
9658;DHT22;4867;48.112;11.622;2022-12-13T14:10:22;-3.60;99.90
9658;DHT22;4867;48.112;11.622;2022-12-13T14:15:57;-3.60;99.90
9658;DHT22;4867;48.112;11.622;2022-12-13T14:18:36;-3.50;99.90
9658;DHT22;4867;48.112;11.622;2022-12-13T14:21:43;-3.60;99.90
9658;DHT22;4867;48.112;11.622;2022-12-13T14:24:16;-3.60;99.90
9658;DHT22;4867;48.112;11.622;2022-12-13T14:26:52;-3.60;99.90
9658;DHT22;4867;48.112;11.622;2022-12-13T14:29:27;-3.70;99.90
9658;DHT22;4867;48.112;11.622;2022-12-13T14:31:57;-3.70;99.90
9658;DHT22;4867;48.112;11.622;2022-12-13T14:34:29;-3.70;99.90
9658;DHT22;4867;48.112;11.622;2022-12-13T14:37:02;-3.70;99.90
9658;DHT22;4867;48.112;11.622;2022-12-13T14:39:31;-3.70;99.90
9658;DHT22;4867;48.112;11.622;2022-12-13T14:42:19;-3.80;99.90
9658;DHT22;4867;48.112;11.622;2022-12-13T14:44:47;-3.90;99.90
9658;DHT22;4867;48.112;11.622;2022-12-13T14:47:16;-3.90;99.90
9658;DHT22;4867;48.112;11.622;2022-12-13T14:49:44;-4.00;99.90
9658;DHT22;4867;48.112;11.622;2022-12-13T14:52:28;-4.00;99.90
9658;DHT22;4867;48.112;11.622;2022-12-13T14:55:00;-4.00;99.90
9658;DHT22;4867;48.112;11.622;2022-12-13T14:57:33;-4.10;99.90
9658;DHT22;4867;48.112;11.622;2022-12-13T15:00:25;-4.10;99.90
9658;DHT22;4867;48.112;11.622;2022-12-13T15:02:55;-4.10;99.90
9658;DHT22;4867;48.112;11.622;2022-12-13T15:07:55;-4.10;99.90
9658;DHT22;4867;48.112;11.622;2022-12-13T15:10:31;-4.20;99.90
9658;DHT22;4867;48.112;11.622;2022-12-13T15:12:59;-4.30;99.90
9658;DHT22;4867;48.112;11.622;2022-12-13T15:15:35;-4.40;99.90
9658;DHT22;4867;48.112;11.622;2022-12-13T15:20:40;-4.40;99.90
9658;DHT22;4867;48.112;11.622;2022-12-13T15:25:58;-4.40;99.90
9658;DHT22;4867;48.112;11.622;2022-12-13T15:28:30;-4.50;99.90
9658;DHT22;4867;48.112;11.622;2022-12-13T15:30:59;-4.60;99.90
9658;DHT22;4867;48.112;11.622;2022-12-13T15:33:28;-4.60;99.90
9658;DHT22;4867;48.112;11.622;2022-12-13T15:38:42;-4.70;99.90
9658;DHT22;4867;48.112;11.622;2022-12-13T15:41:18;-4.80;99.90
9658;DHT22;4867;48.112;11.622;2022-12-13T15:43:49;-4.70;99.90
9658;DHT22;4867;48.112;11.622;2022-12-13T15:46:34;-4.80;99.90
9658;DHT22;4867;48.112;11.622;2022-12-13T15:54:53;-4.80;99.90
9658;DHT22;4867;48.112;11.622;2022-12-13T15:57:26;-4.80;99.90
9658;DHT22;4867;48.112;11.622;2022-12-13T16:02:56;-4.90;99.90
9658;DHT22;4867;48.112;11.622;2022-12-13T16:05:30;-4.90;99.90
9658;DHT22;4867;48.112;11.622;2022-12-13T16:08:00;-4.90;99.90
9658;DHT22;4867;48.112;11.622;2022-12-13T16:10:48;-5.00;99.90
9658;DHT22;4867;48.112;11.622;2022-12-13T16:13:29;-4.90;99.90
9658;DHT22;4867;48.112;11.622;2022-12-13T16:16:00;-4.90;99.90
9658;DHT22;4867;48.112;11.622;2022-12-13T16:18:51;-4.90;99.90
9658;DHT22;4867;48.112;11.622;2022-12-13T16:21:19;-4.90;99.90
9658;DHT22;4867;48.112;11.622;2022-12-13T16:23:47;-4.80;99.90
9658;DHT22;4867;48.112;11.622;2022-12-13T16:26:21;-4.80;99.90
9658;DHT22;4867;48.112;11.622;2022-12-13T16:28:49;-4.80;99.90
9658;DHT22;4867;48.112;11.622;2022-12-13T16:31:21;-4.80;99.90
9658;DHT22;4867;48.112;11.622;2022-12-13T16:33:49;-4.80;99.90
9658;DHT22;4867;48.112;11.622;2022-12-13T16:36:16;-4.90;99.90
9658;DHT22;4867;48.112;11.622;2022-12-13T16:38:44;-4.90;99.90
9658;DHT22;4867;48.112;11.622;2022-12-13T16:41:11;-4.90;99.90
9658;DHT22;4867;48.112;11.622;2022-12-13T16:43:53;-4.90;99.90
9658;DHT22;4867;48.112;11.622;2022-12-13T16:46:24;-4.90;99.90
9658;DHT22;4867;48.112;11.622;2022-12-13T16:49:21;-4.90;99.90
9658;DHT22;4867;48.112;11.622;2022-12-13T16:51:51;-4.90;99.90
9658;DHT22;4867;48.112;11.622;2022-12-13T16:54:20;-4.90;99.90
9658;DHT22;4867;48.112;11.622;2022-12-13T16:56:49;-5.00;99.90
9658;DHT22;4867;48.112;11.622;2022-12-13T16:59:19;-5.00;99.90
9658;DHT22;4867;48.112;11.622;2022-12-13T17:01:48;-5.00;99.90
9658;DHT22;4867;48.112;11.622;2022-12-13T17:04:19;-5.00;99.90
9658;DHT22;4867;48.112;11.622;2022-12-13T17:06:48;-5.10;99.90
9658;DHT22;4867;48.112;11.622;2022-12-13T17:09:17;-5.10;99.90
9658;DHT22;4867;48.112;11.622;2022-12-13T17:11:44;-5.10;99.90
9658;DHT22;4867;48.112;11.622;2022-12-13T17:14:11;-5.10;99.90
9658;DHT22;4867;48.112;11.622;2022-12-13T17:16:39;-5.10;99.90
9658;DHT22;4867;48.112;11.622;2022-12-13T17:19:06;-5.10;99.90
9658;DHT22;4867;48.112;11.622;2022-12-13T17:21:33;-5.10;99.90
9658;DHT22;4867;48.112;11.622;2022-12-13T17:24:01;-5.20;99.90
9658;DHT22;4867;48.112;11.622;2022-12-13T17:26:29;-5.20;99.90
9658;DHT22;4867;48.112;11.622;2022-12-13T17:28:56;-5.20;99.90
9658;DHT22;4867;48.112;11.622;2022-12-13T17:31:24;-5.20;99.90
9658;DHT22;4867;48.112;11.622;2022-12-13T17:33:59;-5.20;99.90
9658;DHT22;4867;48.112;11.622;2022-12-13T17:36:26;-5.20;99.90
9658;DHT22;4867;48.112;11.622;2022-12-13T17:38:53;-5.20;99.90
9658;DHT22;4867;48.112;11.622;2022-12-13T17:41:21;-5.20;99.90
9658;DHT22;4867;48.112;11.622;2022-12-13T17:43:50;-5.20;99.90
9658;DHT22;4867;48.112;11.622;2022-12-13T17:46:17;-5.20;99.90
9658;DHT22;4867;48.112;11.622;2022-12-13T17:48:45;-5.30;99.90
9658;DHT22;4867;48.112;11.622;2022-12-13T17:51:13;-5.30;99.90
9658;DHT22;4867;48.112;11.622;2022-12-13T17:53:42;-5.30;99.90
9658;DHT22;4867;48.112;11.622;2022-12-13T17:56:11;-5.30;99.90
9658;DHT22;4867;48.112;11.622;2022-12-13T17:58:41;-5.40;99.90
9658;DHT22;4867;48.112;11.622;2022-12-13T18:01:20;-5.40;99.90
9658;DHT22;4867;48.112;11.622;2022-12-13T18:03:50;-5.40;99.90
9658;DHT22;4867;48.112;11.622;2022-12-13T18:06:18;-5.40;99.90
9658;DHT22;4867;48.112;11.622;2022-12-13T18:08:46;-5.40;99.90
9658;DHT22;4867;48.112;11.622;2022-12-13T18:11:15;-5.40;99.90
9658;DHT22;4867;48.112;11.622;2022-12-13T18:14:00;-5.40;99.90
9658;DHT22;4867;48.112;11.622;2022-12-13T18:16:28;-5.40;99.90
9658;DHT22;4867;48.112;11.622;2022-12-13T18:19:06;-5.40;99.90
9658;DHT22;4867;48.112;11.622;2022-12-13T18:21:35;-5.40;99.90
9658;DHT22;4867;48.112;11.622;2022-12-13T18:24:04;-5.40;99.90
9658;DHT22;4867;48.112;11.622;2022-12-13T18:26:33;-5.40;99.90